createdAt,value
2023-02-27T00:03:16.473Z,0.14
2023-02-27T00:13:20.378Z,-0.20
2023-02-27T00:23:24.827Z,0.36
2023-02-27T00:33:29.726Z,0.36
2023-02-27T00:43:35.278Z,-0.11
2023-02-27T00:53:38.962Z,-0.09
2023-02-27T01:03:42.922Z,0.06
2023-02-27T01:13:48.837Z,-0.11
2023-02-27T01:23:53.777Z,-0.01
2023-02-27T01:33:58.309Z,0.25
2023-02-27T01:44:14.309Z,0.23
2023-02-27T01:54:24.785Z,-0.19
2023-02-27T02:04:33.362Z,-0.27
2023-02-27T02:14:39.793Z,-0.17
2023-02-27T02:25:21.146Z,0.22
2023-02-27T02:35:30.838Z,0.27
2023-02-27T02:45:44.477Z,0.35
2023-02-27T02:55:57.862Z,0.40
2023-02-27T03:06:08.729Z,0.16
2023-02-27T03:16:25.483Z,-0.08
2023-02-27T03:26:36.666Z,-0.05
2023-02-27T03:37:10.545Z,-0.07
2023-02-27T03:47:15.039Z,0.13
2023-02-27T03:57:20.985Z,0.17
2023-02-27T04:07:43.050Z,0.27
2023-02-27T04:18:23.501Z,0.53
2023-02-27T04:28:49.134Z,0.57
2023-02-27T04:38:56.639Z,0.68
2023-02-27T04:49:11.204Z,0.76
2023-02-27T04:59:25.292Z,0.99
2023-02-27T05:09:41.365Z,0.92
2023-02-27T05:19:47.239Z,0.61
2023-02-27T05:29:53.800Z,0.33
2023-02-27T05:40:02.561Z,0.18
2023-02-27T05:50:22.348Z,0.02
2023-02-27T06:00:38.130Z,-0.10
2023-02-27T06:10:42.044Z,0.19
2023-02-27T06:20:47.254Z,0.26
2023-02-27T06:30:55.458Z,2.08
2023-02-27T06:41:00.898Z,1.64
2023-02-27T06:51:05.180Z,0.65
2023-02-27T07:01:08.970Z,0.72
2023-02-27T07:11:12.602Z,0.48
2023-02-27T07:21:20.782Z,0.18
2023-02-27T07:31:24.553Z,-0.20
2023-02-27T07:41:31.007Z,-0.23
2023-02-27T07:51:37.955Z,-0.22
2023-02-27T08:01:48.459Z,-0.17
2023-02-27T08:11:52.143Z,0.04
2023-02-27T08:21:55.685Z,0.17
2023-02-27T08:32:02.720Z,0.46
2023-02-27T08:42:07.408Z,0.43
2023-02-27T08:52:11.070Z,0.29
2023-02-27T09:02:15.026Z,0.22
2023-02-27T09:12:18.593Z,0.37
2023-02-27T09:22:22.363Z,0.07
2023-02-27T09:32:27.692Z,0.18
2023-02-27T09:42:46.581Z,0.42
2023-02-27T09:52:50.656Z,0.62
2023-02-27T10:03:05.339Z,0.82
2023-02-27T10:13:49.576Z,0.92
2023-02-27T10:24:33.482Z,1.17
2023-02-27T10:34:41.900Z,1.39
2023-02-27T10:44:48.362Z,1.45
2023-02-27T10:54:53.852Z,1.53
2023-02-27T11:05:01.096Z,1.52
2023-02-27T11:15:14.965Z,1.60
2023-02-27T11:25:23.923Z,1.43
2023-02-27T11:35:57.406Z,1.42
2023-02-27T11:46:33.236Z,1.58
2023-02-27T11:56:44.323Z,1.72
2023-02-27T12:06:58.585Z,1.83
2023-02-27T12:17:20.599Z,1.86
2023-02-27T12:27:34.106Z,2.03
2023-02-27T12:37:38.228Z,2.28
2023-02-27T12:47:59.929Z,2.26
2023-02-27T12:58:23.831Z,2.50
2023-02-27T13:08:41.022Z,2.72
2023-02-27T13:19:09.638Z,2.70
2023-02-27T13:29:17.481Z,2.90
2023-02-27T13:39:47.911Z,2.76
2023-02-27T13:49:52.965Z,2.94
2023-02-27T14:00:05.162Z,2.94
2023-02-27T14:10:24.868Z,3.18
2023-02-27T14:20:30.527Z,2.91
2023-02-27T14:30:52.477Z,2.85
2023-02-27T14:41:22.554Z,2.73
2023-02-27T14:51:27.129Z,2.70
2023-02-27T15:01:36.092Z,2.59
2023-02-27T15:11:44.819Z,2.55
2023-02-27T15:21:59.866Z,2.62
2023-02-27T15:32:05.475Z,2.57
2023-02-27T15:42:13.401Z,2.47
2023-02-27T15:52:26.333Z,2.17
2023-02-27T16:02:47.822Z,2.10
2023-02-27T16:12:51.501Z,1.82
2023-02-27T16:23:08.024Z,1.61
2023-02-27T16:33:21.816Z,1.58
2023-02-27T16:43:25.435Z,1.33
2023-02-27T16:53:29.396Z,1.06
2023-02-27T17:03:33.541Z,0.96
2023-02-27T17:13:38.387Z,0.86
2023-02-27T17:23:42.240Z,0.97
2023-02-27T17:33:45.808Z,0.95
2023-02-27T17:43:55.553Z,0.96
2023-02-27T17:54:06.961Z,0.94
2023-02-27T18:04:11.662Z,0.86
2023-02-27T18:14:15.883Z,0.59
2023-02-27T18:24:19.742Z,0.37
2023-02-27T18:34:23.922Z,0.55
2023-02-27T18:44:28.063Z,0.80
2023-02-27T18:54:31.806Z,0.84
2023-02-27T19:04:35.652Z,0.64
2023-02-27T19:14:39.804Z,0.47
2023-02-27T19:24:44.644Z,0.42
2023-02-27T19:34:48.413Z,0.17
2023-02-27T19:44:52.787Z,-0.27
2023-02-27T19:54:58.982Z,-0.75
2023-02-27T20:05:03.479Z,-0.55
2023-02-27T20:15:11.748Z,-0.16
2023-02-27T20:25:18.476Z,-0.05
2023-02-27T20:35:22.215Z,-0.19
2023-02-27T20:45:30.350Z,-0.07
2023-02-27T20:55:34.008Z,-0.13
2023-02-27T21:05:37.755Z,-0.18
2023-02-27T21:15:43.196Z,-0.23
2023-02-27T21:25:48.446Z,-0.38
2023-02-27T21:35:52.295Z,-0.41
2023-02-27T21:45:56.219Z,-0.52
2023-02-27T21:56:08.410Z,-0.51
2023-02-27T22:06:16.216Z,-0.57
2023-02-27T22:16:21.389Z,-0.53
2023-02-27T22:26:29.580Z,-0.66
2023-02-27T22:36:35.261Z,-0.71
2023-02-27T22:46:46.550Z,-0.75
2023-02-27T22:56:52.226Z,-1.02
2023-02-27T23:06:56.524Z,-1.06
2023-02-27T23:17:00.715Z,-1.13
2023-02-27T23:27:16.395Z,-1.36
2023-02-27T23:37:28.593Z,-1.29
2023-02-27T23:47:52.184Z,-1.40
2023-02-27T23:57:58.797Z,-1.48
